sensor_id;sensor_type;location;lat;lon;timestamp;P1;durP1;ratioP1;P2;durP2;ratioP2
68886;SDS011;55925;51.764;6.402;2023-08-06T00:00:22;10.88;;;4.63;;
68886;SDS011;55925;51.764;6.402;2023-08-06T00:02:49;10.00;;;4.57;;
68886;SDS011;55925;51.764;6.402;2023-08-06T00:05:15;12.25;;;5.18;;
68886;SDS011;55925;51.764;6.402;2023-08-06T00:07:52;9.27;;;4.38;;
68886;SDS011;55925;51.764;6.402;2023-08-06T00:10:18;9.23;;;4.35;;
68886;SDS011;55925;51.764;6.402;2023-08-06T00:12:44;10.55;;;5.10;;
68886;SDS011;55925;51.764;6.402;2023-08-06T00:15:10;9.50;;;5.10;;
68886;SDS011;55925;51.764;6.402;2023-08-06T00:17:36;11.65;;;5.03;;
68886;SDS011;55925;51.764;6.402;2023-08-06T00:20:02;9.07;;;4.43;;
68886;SDS011;55925;51.764;6.402;2023-08-06T00:22:35;10.38;;;5.18;;
68886;SDS011;55925;51.764;6.402;2023-08-06T00:25:02;7.63;;;4.05;;
68886;SDS011;55925;51.764;6.402;2023-08-06T00:27:28;8.45;;;4.35;;
68886;SDS011;55925;51.764;6.402;2023-08-06T00:29:55;10.52;;;4.57;;
68886;SDS011;55925;51.764;6.402;2023-08-06T00:32:21;10.27;;;5.13;;
68886;SDS011;55925;51.764;6.402;2023-08-06T00:34:47;11.73;;;5.00;;
68886;SDS011;55925;51.764;6.402;2023-08-06T00:37:18;9.63;;;5.10;;
68886;SDS011;55925;51.764;6.402;2023-08-06T00:39:44;13.93;;;6.20;;
68886;SDS011;55925;51.764;6.402;2023-08-06T00:42:11;11.82;;;5.38;;
68886;SDS011;55925;51.764;6.402;2023-08-06T00:44:37;14.82;;;5.97;;
68886;SDS011;55925;51.764;6.402;2023-08-06T00:47:03;10.35;;;5.25;;
68886;SDS011;55925;51.764;6.402;2023-08-06T00:49:29;10.55;;;5.47;;
68886;SDS011;55925;51.764;6.402;2023-08-06T00:51:56;10.88;;;5.30;;
68886;SDS011;55925;51.764;6.402;2023-08-06T00:54:22;11.23;;;5.63;;
68886;SDS011;55925;51.764;6.402;2023-08-06T00:56:49;12.07;;;5.97;;
68886;SDS011;55925;51.764;6.402;2023-08-06T00:59:15;12.63;;;6.28;;
68886;SDS011;55925;51.764;6.402;2023-08-06T01:01:41;11.88;;;5.03;;
68886;SDS011;55925;51.764;6.402;2023-08-06T01:04:07;10.45;;;4.90;;
68886;SDS011;55925;51.764;6.402;2023-08-06T01:06:43;13.88;;;5.53;;
68886;SDS011;55925;51.764;6.402;2023-08-06T01:14:43;11.30;;;5.38;;
68886;SDS011;55925;51.764;6.402;2023-08-06T01:17:12;17.70;;;6.03;;
68886;SDS011;55925;51.764;6.402;2023-08-06T01:19:38;10.52;;;4.78;;
68886;SDS011;55925;51.764;6.402;2023-08-06T01:22:04;10.68;;;5.43;;
68886;SDS011;55925;51.764;6.402;2023-08-06T01:24:30;11.68;;;5.88;;
68886;SDS011;55925;51.764;6.402;2023-08-06T01:29:28;12.23;;;5.43;;
68886;SDS011;55925;51.764;6.402;2023-08-06T01:31:56;12.80;;;6.38;;
68886;SDS011;55925;51.764;6.402;2023-08-06T01:34:24;13.25;;;5.78;;
68886;SDS011;55925;51.764;6.402;2023-08-06T01:36:50;14.30;;;5.45;;
68886;SDS011;55925;51.764;6.402;2023-08-06T01:39:16;13.43;;;6.13;;
68886;SDS011;55925;51.764;6.402;2023-08-06T01:41:45;11.65;;;5.93;;
68886;SDS011;55925;51.764;6.402;2023-08-06T01:44:11;14.27;;;6.85;;
68886;SDS011;55925;51.764;6.402;2023-08-06T01:46:37;13.80;;;6.82;;
68886;SDS011;55925;51.764;6.402;2023-08-06T01:49:03;14.90;;;6.57;;
68886;SDS011;55925;51.764;6.402;2023-08-06T01:51:29;14.63;;;7.05;;
68886;SDS011;55925;51.764;6.402;2023-08-06T01:53:55;15.38;;;7.18;;
68886;SDS011;55925;51.764;6.402;2023-08-06T01:56:21;13.43;;;6.10;;
68886;SDS011;55925;51.764;6.402;2023-08-06T01:58:47;12.80;;;6.13;;
68886;SDS011;55925;51.764;6.402;2023-08-06T02:01:13;12.70;;;6.88;;
68886;SDS011;55925;51.764;6.402;2023-08-06T02:03:39;11.25;;;5.88;;
68886;SDS011;55925;51.764;6.402;2023-08-06T02:06:05;12.65;;;6.90;;
68886;SDS011;55925;51.764;6.402;2023-08-06T02:08:31;13.18;;;6.10;;
68886;SDS011;55925;51.764;6.402;2023-08-06T02:10:57;11.05;;;5.93;;
68886;SDS011;55925;51.764;6.402;2023-08-06T02:13:24;12.77;;;5.78;;
68886;SDS011;55925;51.764;6.402;2023-08-06T02:15:50;12.77;;;6.10;;
68886;SDS011;55925;51.764;6.402;2023-08-06T02:18:16;13.27;;;5.88;;
68886;SDS011;55925;51.764;6.402;2023-08-06T02:20:42;11.38;;;5.85;;
68886;SDS011;55925;51.764;6.402;2023-08-06T02:23:08;11.60;;;5.45;;
68886;SDS011;55925;51.764;6.402;2023-08-06T02:25:34;11.55;;;5.07;;
68886;SDS011;55925;51.764;6.402;2023-08-06T02:28:00;12.40;;;5.28;;
68886;SDS011;55925;51.764;6.402;2023-08-06T02:30:26;11.80;;;5.43;;
68886;SDS011;55925;51.764;6.402;2023-08-06T02:32:52;10.30;;;5.80;;
68886;SDS011;55925;51.764;6.402;2023-08-06T02:35:18;11.52;;;5.22;;
68886;SDS011;55925;51.764;6.402;2023-08-06T02:37:44;12.23;;;5.72;;
68886;SDS011;55925;51.764;6.402;2023-08-06T02:40:10;11.93;;;6.28;;
68886;SDS011;55925;51.764;6.402;2023-08-06T02:42:36;12.85;;;5.63;;
68886;SDS011;55925;51.764;6.402;2023-08-06T02:45:02;12.30;;;6.10;;
68886;SDS011;55925;51.764;6.402;2023-08-06T02:47:29;13.93;;;5.65;;
68886;SDS011;55925;51.764;6.402;2023-08-06T02:49:56;14.02;;;5.80;;
68886;SDS011;55925;51.764;6.402;2023-08-06T02:52:22;14.55;;;5.95;;
68886;SDS011;55925;51.764;6.402;2023-08-06T02:54:48;13.70;;;5.78;;
68886;SDS011;55925;51.764;6.402;2023-08-06T02:57:14;12.15;;;6.10;;
68886;SDS011;55925;51.764;6.402;2023-08-06T02:59:40;12.60;;;5.95;;
68886;SDS011;55925;51.764;6.402;2023-08-06T03:02:06;12.55;;;6.15;;
68886;SDS011;55925;51.764;6.402;2023-08-06T03:04:32;12.55;;;6.03;;
68886;SDS011;55925;51.764;6.402;2023-08-06T03:06:58;11.50;;;5.40;;
68886;SDS011;55925;51.764;6.402;2023-08-06T03:09:24;14.70;;;5.65;;
68886;SDS011;55925;51.764;6.402;2023-08-06T03:11:50;13.70;;;5.93;;
68886;SDS011;55925;51.764;6.402;2023-08-06T03:14:16;13.35;;;6.07;;
68886;SDS011;55925;51.764;6.402;2023-08-06T03:16:42;12.40;;;5.90;;
68886;SDS011;55925;51.764;6.402;2023-08-06T03:19:08;13.80;;;6.68;;
68886;SDS011;55925;51.764;6.402;2023-08-06T03:21:34;15.98;;;7.18;;
68886;SDS011;55925;51.764;6.402;2023-08-06T03:24:00;15.20;;;6.65;;
68886;SDS011;55925;51.764;6.402;2023-08-06T03:26:26;16.35;;;7.95;;
68886;SDS011;55925;51.764;6.402;2023-08-06T03:28:52;14.80;;;7.15;;
68886;SDS011;55925;51.764;6.402;2023-08-06T03:31:18;16.00;;;7.75;;
68886;SDS011;55925;51.764;6.402;2023-08-06T03:33:44;19.20;;;7.47;;
68886;SDS011;55925;51.764;6.402;2023-08-06T03:36:10;14.57;;;7.82;;
68886;SDS011;55925;51.764;6.402;2023-08-06T03:38:36;13.88;;;6.15;;
68886;SDS011;55925;51.764;6.402;2023-08-06T03:41:02;14.80;;;7.35;;
68886;SDS011;55925;51.764;6.402;2023-08-06T03:43:28;18.30;;;8.45;;
68886;SDS011;55925;51.764;6.402;2023-08-06T03:45:54;15.43;;;6.78;;
68886;SDS011;55925;51.764;6.402;2023-08-06T03:48:20;13.13;;;6.90;;
68886;SDS011;55925;51.764;6.402;2023-08-06T03:50:46;14.23;;;6.35;;
68886;SDS011;55925;51.764;6.402;2023-08-06T03:53:12;14.65;;;7.43;;
68886;SDS011;55925;51.764;6.402;2023-08-06T03:55:38;16.98;;;7.60;;
68886;SDS011;55925;51.764;6.402;2023-08-06T03:58:04;16.60;;;7.38;;
68886;SDS011;55925;51.764;6.402;2023-08-06T04:00:30;16.50;;;7.85;;
68886;SDS011;55925;51.764;6.402;2023-08-06T04:02:56;14.55;;;7.45;;
68886;SDS011;55925;51.764;6.402;2023-08-06T04:05:22;14.55;;;6.68;;
68886;SDS011;55925;51.764;6.402;2023-08-06T04:07:48;14.23;;;7.38;;
68886;SDS011;55925;51.764;6.402;2023-08-06T04:10:14;13.63;;;6.43;;
68886;SDS011;55925;51.764;6.402;2023-08-06T04:12:40;15.93;;;7.43;;
68886;SDS011;55925;51.764;6.402;2023-08-06T04:15:06;14.32;;;6.43;;
68886;SDS011;55925;51.764;6.402;2023-08-06T04:17:32;16.45;;;7.80;;
68886;SDS011;55925;51.764;6.402;2023-08-06T04:19:58;12.40;;;6.47;;
68886;SDS011;55925;51.764;6.402;2023-08-06T04:22:25;13.27;;;6.05;;
68886;SDS011;55925;51.764;6.402;2023-08-06T04:24:51;14.93;;;7.00;;
68886;SDS011;55925;51.764;6.402;2023-08-06T04:27:18;15.07;;;6.35;;
68886;SDS011;55925;51.764;6.402;2023-08-06T04:29:44;13.60;;;6.50;;
68886;SDS011;55925;51.764;6.402;2023-08-06T04:32:10;14.40;;;6.32;;
68886;SDS011;55925;51.764;6.402;2023-08-06T04:34:36;15.32;;;6.13;;
68886;SDS011;55925;51.764;6.402;2023-08-06T04:37:03;15.75;;;7.05;;
68886;SDS011;55925;51.764;6.402;2023-08-06T04:39:29;13.27;;;6.35;;
68886;SDS011;55925;51.764;6.402;2023-08-06T04:41:58;15.23;;;6.32;;
68886;SDS011;55925;51.764;6.402;2023-08-06T04:44:24;13.55;;;6.28;;
68886;SDS011;55925;51.764;6.402;2023-08-06T04:46:50;14.65;;;6.10;;
68886;SDS011;55925;51.764;6.402;2023-08-06T04:49:17;12.20;;;5.88;;
68886;SDS011;55925;51.764;6.402;2023-08-06T04:51:43;11.90;;;5.55;;
68886;SDS011;55925;51.764;6.402;2023-08-06T04:54:09;11.13;;;5.40;;
68886;SDS011;55925;51.764;6.402;2023-08-06T04:56:35;10.35;;;5.00;;
68886;SDS011;55925;51.764;6.402;2023-08-06T04:59:01;8.85;;;4.68;;
68886;SDS011;55925;51.764;6.402;2023-08-06T05:01:27;9.60;;;4.70;;
68886;SDS011;55925;51.764;6.402;2023-08-06T05:03:53;9.10;;;4.72;;
68886;SDS011;55925;51.764;6.402;2023-08-06T05:06:19;10.73;;;4.53;;
68886;SDS011;55925;51.764;6.402;2023-08-06T05:08:45;10.30;;;4.80;;
68886;SDS011;55925;51.764;6.402;2023-08-06T05:11:11;9.02;;;4.18;;
68886;SDS011;55925;51.764;6.402;2023-08-06T05:13:37;10.88;;;4.57;;
68886;SDS011;55925;51.764;6.402;2023-08-06T05:16:03;10.35;;;4.78;;
68886;SDS011;55925;51.764;6.402;2023-08-06T05:18:29;11.80;;;4.53;;
68886;SDS011;55925;51.764;6.402;2023-08-06T05:20:55;10.18;;;4.72;;
68886;SDS011;55925;51.764;6.402;2023-08-06T05:23:22;10.50;;;4.72;;
68886;SDS011;55925;51.764;6.402;2023-08-06T05:25:48;7.70;;;3.92;;
68886;SDS011;55925;51.764;6.402;2023-08-06T05:28:14;9.25;;;3.95;;
68886;SDS011;55925;51.764;6.402;2023-08-06T05:30:40;8.20;;;4.05;;
68886;SDS011;55925;51.764;6.402;2023-08-06T05:33:06;8.40;;;4.18;;
68886;SDS011;55925;51.764;6.402;2023-08-06T05:35:32;7.93;;;4.00;;
68886;SDS011;55925;51.764;6.402;2023-08-06T05:37:58;8.32;;;3.58;;
68886;SDS011;55925;51.764;6.402;2023-08-06T05:40:24;7.43;;;3.90;;
68886;SDS011;55925;51.764;6.402;2023-08-06T05:42:53;7.22;;;3.33;;
68886;SDS011;55925;51.764;6.402;2023-08-06T05:45:19;7.15;;;3.17;;
68886;SDS011;55925;51.764;6.402;2023-08-06T05:47:45;8.93;;;3.72;;
68886;SDS011;55925;51.764;6.402;2023-08-06T05:50:13;7.03;;;3.58;;
68886;SDS011;55925;51.764;6.402;2023-08-06T05:52:39;8.40;;;3.67;;
68886;SDS011;55925;51.764;6.402;2023-08-06T05:55:05;8.32;;;3.95;;
68886;SDS011;55925;51.764;6.402;2023-08-06T05:57:31;11.00;;;4.07;;
68886;SDS011;55925;51.764;6.402;2023-08-06T05:59:57;8.20;;;3.42;;
68886;SDS011;55925;51.764;6.402;2023-08-06T06:02:23;7.72;;;3.97;;
68886;SDS011;55925;51.764;6.402;2023-08-06T06:04:49;8.02;;;3.40;;
68886;SDS011;55925;51.764;6.402;2023-08-06T06:07:15;8.48;;;3.65;;
68886;SDS011;55925;51.764;6.402;2023-08-06T06:09:41;8.20;;;3.30;;
68886;SDS011;55925;51.764;6.402;2023-08-06T06:12:08;7.78;;;3.40;;
68886;SDS011;55925;51.764;6.402;2023-08-06T06:14:34;6.90;;;3.30;;
68886;SDS011;55925;51.764;6.402;2023-08-06T06:17:00;8.90;;;3.30;;
68886;SDS011;55925;51.764;6.402;2023-08-06T06:19:26;6.78;;;3.05;;
68886;SDS011;55925;51.764;6.402;2023-08-06T06:21:52;7.15;;;3.00;;
68886;SDS011;55925;51.764;6.402;2023-08-06T06:24:18;10.10;;;4.15;;
68886;SDS011;55925;51.764;6.402;2023-08-06T06:26:44;7.43;;;4.05;;
68886;SDS011;55925;51.764;6.402;2023-08-06T06:29:10;8.80;;;4.38;;
68886;SDS011;55925;51.764;6.402;2023-08-06T06:31:36;8.30;;;3.20;;
68886;SDS011;55925;51.764;6.402;2023-08-06T06:34:02;7.45;;;3.55;;
68886;SDS011;55925;51.764;6.402;2023-08-06T06:36:28;8.45;;;3.20;;
68886;SDS011;55925;51.764;6.402;2023-08-06T06:38:54;7.10;;;3.58;;
68886;SDS011;55925;51.764;6.402;2023-08-06T06:41:20;9.00;;;3.42;;
68886;SDS011;55925;51.764;6.402;2023-08-06T06:43:46;6.75;;;3.63;;
68886;SDS011;55925;51.764;6.402;2023-08-06T06:46:12;7.18;;;3.47;;
68886;SDS011;55925;51.764;6.402;2023-08-06T06:48:38;11.18;;;4.00;;
68886;SDS011;55925;51.764;6.402;2023-08-06T06:51:04;7.82;;;3.53;;
68886;SDS011;55925;51.764;6.402;2023-08-06T06:53:30;7.70;;;3.63;;
68886;SDS011;55925;51.764;6.402;2023-08-06T06:56:03;8.70;;;4.10;;
68886;SDS011;55925;51.764;6.402;2023-08-06T06:58:30;7.60;;;3.80;;
68886;SDS011;55925;51.764;6.402;2023-08-06T07:00:56;8.10;;;3.70;;
68886;SDS011;55925;51.764;6.402;2023-08-06T07:03:22;8.05;;;3.80;;
68886;SDS011;55925;51.764;6.402;2023-08-06T07:05:49;7.22;;;3.92;;
68886;SDS011;55925;51.764;6.402;2023-08-06T07:08:15;8.20;;;4.32;;
68886;SDS011;55925;51.764;6.402;2023-08-06T07:10:41;8.30;;;4.38;;
68886;SDS011;55925;51.764;6.402;2023-08-06T07:13:08;8.38;;;4.60;;
68886;SDS011;55925;51.764;6.402;2023-08-06T07:15:34;8.00;;;4.53;;
68886;SDS011;55925;51.764;6.402;2023-08-06T07:18:00;11.02;;;4.72;;
68886;SDS011;55925;51.764;6.402;2023-08-06T07:20:26;8.05;;;4.15;;
68886;SDS011;55925;51.764;6.402;2023-08-06T07:22:56;8.00;;;4.10;;
68886;SDS011;55925;51.764;6.402;2023-08-06T07:25:22;10.30;;;4.55;;
68886;SDS011;55925;51.764;6.402;2023-08-06T07:27:48;9.23;;;4.72;;
68886;SDS011;55925;51.764;6.402;2023-08-06T07:30:14;15.80;;;5.20;;
68886;SDS011;55925;51.764;6.402;2023-08-06T07:32:40;10.68;;;6.45;;
68886;SDS011;55925;51.764;6.402;2023-08-06T07:35:06;12.75;;;6.93;;
68886;SDS011;55925;51.764;6.402;2023-08-06T07:37:34;11.65;;;6.53;;
68886;SDS011;55925;51.764;6.402;2023-08-06T07:40:00;10.57;;;6.10;;
68886;SDS011;55925;51.764;6.402;2023-08-06T07:42:26;10.93;;;6.25;;
68886;SDS011;55925;51.764;6.402;2023-08-06T07:44:53;12.05;;;6.57;;
68886;SDS011;55925;51.764;6.402;2023-08-06T07:47:20;12.65;;;6.78;;
68886;SDS011;55925;51.764;6.402;2023-08-06T07:49:46;14.77;;;7.05;;
68886;SDS011;55925;51.764;6.402;2023-08-06T07:52:12;14.50;;;7.72;;
68886;SDS011;55925;51.764;6.402;2023-08-06T07:54:38;12.60;;;7.03;;
68886;SDS011;55925;51.764;6.402;2023-08-06T07:57:04;13.35;;;7.65;;
68886;SDS011;55925;51.764;6.402;2023-08-06T07:59:30;13.15;;;7.13;;
68886;SDS011;55925;51.764;6.402;2023-08-06T08:01:56;15.45;;;8.45;;
68886;SDS011;55925;51.764;6.402;2023-08-06T08:04:23;15.63;;;7.85;;
68886;SDS011;55925;51.764;6.402;2023-08-06T08:06:49;13.65;;;7.15;;
68886;SDS011;55925;51.764;6.402;2023-08-06T08:09:15;14.95;;;7.68;;
68886;SDS011;55925;51.764;6.402;2023-08-06T08:11:41;15.05;;;7.70;;
68886;SDS011;55925;51.764;6.402;2023-08-06T08:14:07;12.55;;;7.20;;
68886;SDS011;55925;51.764;6.402;2023-08-06T08:16:33;14.25;;;7.70;;
68886;SDS011;55925;51.764;6.402;2023-08-06T08:18:59;14.02;;;7.85;;
68886;SDS011;55925;51.764;6.402;2023-08-06T08:21:26;13.98;;;8.27;;
68886;SDS011;55925;51.764;6.402;2023-08-06T08:23:52;14.10;;;8.05;;
68886;SDS011;55925;51.764;6.402;2023-08-06T08:26:18;14.13;;;8.02;;
68886;SDS011;55925;51.764;6.402;2023-08-06T08:28:44;16.17;;;8.32;;
68886;SDS011;55925;51.764;6.402;2023-08-06T08:31:10;16.23;;;8.30;;
68886;SDS011;55925;51.764;6.402;2023-08-06T08:33:37;15.27;;;8.40;;
68886;SDS011;55925;51.764;6.402;2023-08-06T08:36:03;15.98;;;8.95;;
68886;SDS011;55925;51.764;6.402;2023-08-06T08:38:29;15.88;;;8.90;;
68886;SDS011;55925;51.764;6.402;2023-08-06T08:40:56;18.05;;;9.48;;
68886;SDS011;55925;51.764;6.402;2023-08-06T08:43:22;16.63;;;8.43;;
68886;SDS011;55925;51.764;6.402;2023-08-06T08:45:52;18.55;;;9.93;;
68886;SDS011;55925;51.764;6.402;2023-08-06T08:48:23;19.40;;;10.77;;
68886;SDS011;55925;51.764;6.402;2023-08-06T08:50:49;17.58;;;9.20;;
68886;SDS011;55925;51.764;6.402;2023-08-06T08:53:16;17.40;;;10.23;;
68886;SDS011;55925;51.764;6.402;2023-08-06T08:55:42;18.23;;;10.57;;
68886;SDS011;55925;51.764;6.402;2023-08-06T08:58:09;17.23;;;9.27;;
68886;SDS011;55925;51.764;6.402;2023-08-06T09:00:35;18.20;;;10.07;;
68886;SDS011;55925;51.764;6.402;2023-08-06T09:03:01;16.92;;;9.43;;
68886;SDS011;55925;51.764;6.402;2023-08-06T09:05:28;16.70;;;9.43;;
68886;SDS011;55925;51.764;6.402;2023-08-06T09:07:56;18.88;;;10.05;;
68886;SDS011;55925;51.764;6.402;2023-08-06T09:10:27;18.08;;;9.73;;
68886;SDS011;55925;51.764;6.402;2023-08-06T09:12:53;17.55;;;10.10;;
68886;SDS011;55925;51.764;6.402;2023-08-06T09:15:20;15.68;;;8.60;;
68886;SDS011;55925;51.764;6.402;2023-08-06T09:17:46;17.48;;;9.85;;
68886;SDS011;55925;51.764;6.402;2023-08-06T09:20:12;18.05;;;9.35;;
68886;SDS011;55925;51.764;6.402;2023-08-06T09:22:39;17.10;;;9.70;;
68886;SDS011;55925;51.764;6.402;2023-08-06T09:25:06;18.27;;;8.95;;
68886;SDS011;55925;51.764;6.402;2023-08-06T09:27:37;14.73;;;8.07;;
68886;SDS011;55925;51.764;6.402;2023-08-06T09:30:04;15.88;;;8.50;;
68886;SDS011;55925;51.764;6.402;2023-08-06T09:32:46;14.82;;;8.18;;
68886;SDS011;55925;51.764;6.402;2023-08-06T09:35:16;15.32;;;8.15;;
68886;SDS011;55925;51.764;6.402;2023-08-06T09:37:42;14.48;;;7.90;;
68886;SDS011;55925;51.764;6.402;2023-08-06T09:40:28;12.15;;;7.13;;
68886;SDS011;55925;51.764;6.402;2023-08-06T09:42:54;12.68;;;7.50;;
68886;SDS011;55925;51.764;6.402;2023-08-06T09:45:20;14.48;;;8.20;;
68886;SDS011;55925;51.764;6.402;2023-08-06T09:47:47;15.05;;;7.80;;
68886;SDS011;55925;51.764;6.402;2023-08-06T09:50:17;15.60;;;8.50;;
68886;SDS011;55925;51.764;6.402;2023-08-06T09:52:43;13.45;;;8.18;;
68886;SDS011;55925;51.764;6.402;2023-08-06T09:55:12;12.73;;;6.82;;
68886;SDS011;55925;51.764;6.402;2023-08-06T09:57:39;14.77;;;7.63;;
68886;SDS011;55925;51.764;6.402;2023-08-06T10:00:06;13.23;;;7.43;;
68886;SDS011;55925;51.764;6.402;2023-08-06T10:02:35;14.73;;;7.78;;
68886;SDS011;55925;51.764;6.402;2023-08-06T10:05:01;14.15;;;8.25;;
68886;SDS011;55925;51.764;6.402;2023-08-06T10:07:29;11.00;;;6.80;;
68886;SDS011;55925;51.764;6.402;2023-08-06T10:09:55;12.88;;;6.75;;
68886;SDS011;55925;51.764;6.402;2023-08-06T10:12:22;11.18;;;6.22;;
68886;SDS011;55925;51.764;6.402;2023-08-06T10:14:50;11.40;;;7.15;;
68886;SDS011;55925;51.764;6.402;2023-08-06T10:17:16;11.77;;;6.70;;
68886;SDS011;55925;51.764;6.402;2023-08-06T10:19:42;10.88;;;7.07;;
68886;SDS011;55925;51.764;6.402;2023-08-06T10:22:12;12.63;;;7.55;;
68886;SDS011;55925;51.764;6.402;2023-08-06T10:24:48;11.23;;;6.90;;
68886;SDS011;55925;51.764;6.402;2023-08-06T10:27:35;12.23;;;7.50;;
68886;SDS011;55925;51.764;6.402;2023-08-06T10:32:49;11.68;;;6.55;;
68886;SDS011;55925;51.764;6.402;2023-08-06T10:35:31;9.98;;;6.38;;
68886;SDS011;55925;51.764;6.402;2023-08-06T10:37:58;10.00;;;5.35;;
68886;SDS011;55925;51.764;6.402;2023-08-06T10:40:24;10.07;;;6.40;;
68886;SDS011;55925;51.764;6.402;2023-08-06T10:42:51;9.65;;;5.45;;
68886;SDS011;55925;51.764;6.402;2023-08-06T10:45:18;9.90;;;5.68;;
68886;SDS011;55925;51.764;6.402;2023-08-06T10:47:45;10.25;;;5.32;;
68886;SDS011;55925;51.764;6.402;2023-08-06T10:50:12;8.27;;;4.30;;
68886;SDS011;55925;51.764;6.402;2023-08-06T10:52:38;7.95;;;4.20;;
68886;SDS011;55925;51.764;6.402;2023-08-06T10:55:05;7.30;;;4.15;;
68886;SDS011;55925;51.764;6.402;2023-08-06T10:57:31;9.05;;;4.35;;
68886;SDS011;55925;51.764;6.402;2023-08-06T10:59:57;6.72;;;3.78;;
68886;SDS011;55925;51.764;6.402;2023-08-06T11:02:23;8.27;;;4.60;;
68886;SDS011;55925;51.764;6.402;2023-08-06T11:04:49;6.28;;;4.07;;
68886;SDS011;55925;51.764;6.402;2023-08-06T11:07:15;7.22;;;3.95;;
68886;SDS011;55925;51.764;6.402;2023-08-06T11:09:41;7.68;;;3.92;;
68886;SDS011;55925;51.764;6.402;2023-08-06T11:12:11;6.25;;;3.65;;
68886;SDS011;55925;51.764;6.402;2023-08-06T11:14:37;7.03;;;4.03;;
68886;SDS011;55925;51.764;6.402;2023-08-06T11:17:04;5.15;;;2.20;;
68886;SDS011;55925;51.764;6.402;2023-08-06T11:19:31;3.40;;;1.00;;
68886;SDS011;55925;51.764;6.402;2023-08-06T11:21:57;2.88;;;1.02;;
68886;SDS011;55925;51.764;6.402;2023-08-06T11:24:24;3.10;;;1.00;;
68886;SDS011;55925;51.764;6.402;2023-08-06T11:26:50;3.30;;;1.00;;
68886;SDS011;55925;51.764;6.402;2023-08-06T11:29:16;2.42;;;0.82;;
68886;SDS011;55925;51.764;6.402;2023-08-06T11:31:42;2.30;;;0.70;;
68886;SDS011;55925;51.764;6.402;2023-08-06T11:34:08;2.25;;;0.80;;
68886;SDS011;55925;51.764;6.402;2023-08-06T11:36:36;1.67;;;0.70;;
68886;SDS011;55925;51.764;6.402;2023-08-06T11:39:05;2.10;;;0.80;;
68886;SDS011;55925;51.764;6.402;2023-08-06T11:41:31;1.80;;;0.68;;
68886;SDS011;55925;51.764;6.402;2023-08-06T11:44:01;2.50;;;0.90;;
68886;SDS011;55925;51.764;6.402;2023-08-06T11:46:27;1.33;;;0.60;;
68886;SDS011;55925;51.764;6.402;2023-08-06T11:48:57;2.25;;;0.80;;
68886;SDS011;55925;51.764;6.402;2023-08-06T11:51:26;2.13;;;0.77;;
68886;SDS011;55925;51.764;6.402;2023-08-06T11:53:56;2.28;;;0.82;;
68886;SDS011;55925;51.764;6.402;2023-08-06T11:56:22;2.03;;;0.90;;
68886;SDS011;55925;51.764;6.402;2023-08-06T11:58:48;2.78;;;0.90;;
68886;SDS011;55925;51.764;6.402;2023-08-06T12:01:14;1.73;;;0.70;;
68886;SDS011;55925;51.764;6.402;2023-08-06T12:03:40;2.55;;;0.93;;
68886;SDS011;55925;51.764;6.402;2023-08-06T12:06:06;2.78;;;0.88;;
68886;SDS011;55925;51.764;6.402;2023-08-06T12:08:33;2.33;;;0.95;;
68886;SDS011;55925;51.764;6.402;2023-08-06T12:10:59;2.83;;;0.98;;
68886;SDS011;55925;51.764;6.402;2023-08-06T12:13:25;2.25;;;0.82;;
68886;SDS011;55925;51.764;6.402;2023-08-06T12:15:51;3.00;;;0.80;;
68886;SDS011;55925;51.764;6.402;2023-08-06T12:18:18;2.92;;;1.15;;
68886;SDS011;55925;51.764;6.402;2023-08-06T12:20:46;2.72;;;0.90;;
68886;SDS011;55925;51.764;6.402;2023-08-06T12:23:12;3.75;;;1.10;;
68886;SDS011;55925;51.764;6.402;2023-08-06T12:25:41;3.72;;;1.13;;
68886;SDS011;55925;51.764;6.402;2023-08-06T12:28:07;2.30;;;0.90;;
68886;SDS011;55925;51.764;6.402;2023-08-06T12:30:34;3.15;;;0.95;;
68886;SDS011;55925;51.764;6.402;2023-08-06T12:33:01;4.63;;;1.30;;
68886;SDS011;55925;51.764;6.402;2023-08-06T12:35:26;4.07;;;1.40;;
68886;SDS011;55925;51.764;6.402;2023-08-06T12:37:53;4.43;;;1.70;;
68886;SDS011;55925;51.764;6.402;2023-08-06T12:40:20;6.05;;;1.75;;
68886;SDS011;55925;51.764;6.402;2023-08-06T12:42:46;3.70;;;1.60;;
68886;SDS011;55925;51.764;6.402;2023-08-06T12:45:12;3.95;;;1.70;;
68886;SDS011;55925;51.764;6.402;2023-08-06T12:47:39;4.53;;;1.83;;
68886;SDS011;55925;51.764;6.402;2023-08-06T12:50:05;5.68;;;2.05;;
68886;SDS011;55925;51.764;6.402;2023-08-06T12:52:31;6.18;;;2.70;;
68886;SDS011;55925;51.764;6.402;2023-08-06T12:54:58;9.23;;;3.30;;
68886;SDS011;55925;51.764;6.402;2023-08-06T12:57:25;4.50;;;2.00;;
68886;SDS011;55925;51.764;6.402;2023-08-06T12:59:52;4.75;;;2.00;;
68886;SDS011;55925;51.764;6.402;2023-08-06T13:02:18;5.47;;;1.90;;
68886;SDS011;55925;51.764;6.402;2023-08-06T13:04:45;4.65;;;1.77;;
68886;SDS011;55925;51.764;6.402;2023-08-06T13:07:11;4.78;;;1.50;;
68886;SDS011;55925;51.764;6.402;2023-08-06T13:09:37;4.38;;;1.73;;
68886;SDS011;55925;51.764;6.402;2023-08-06T13:12:03;5.15;;;2.00;;
68886;SDS011;55925;51.764;6.402;2023-08-06T13:14:31;4.55;;;1.80;;
68886;SDS011;55925;51.764;6.402;2023-08-06T13:16:57;5.38;;;2.28;;
68886;SDS011;55925;51.764;6.402;2023-08-06T13:19:23;5.90;;;2.55;;
68886;SDS011;55925;51.764;6.402;2023-08-06T13:24:15;6.75;;;2.53;;
68886;SDS011;55925;51.764;6.402;2023-08-06T13:26:41;6.30;;;2.50;;
68886;SDS011;55925;51.764;6.402;2023-08-06T13:29:07;6.20;;;2.80;;
68886;SDS011;55925;51.764;6.402;2023-08-06T13:31:33;6.40;;;2.67;;
68886;SDS011;55925;51.764;6.402;2023-08-06T13:33:59;5.80;;;2.40;;
68886;SDS011;55925;51.764;6.402;2023-08-06T13:36:28;7.75;;;3.00;;
68886;SDS011;55925;51.764;6.402;2023-08-06T13:38:54;7.43;;;3.20;;
68886;SDS011;55925;51.764;6.402;2023-08-06T13:41:21;7.25;;;3.17;;
68886;SDS011;55925;51.764;6.402;2023-08-06T13:43:47;6.75;;;2.65;;
68886;SDS011;55925;51.764;6.402;2023-08-06T13:46:13;5.80;;;2.72;;
68886;SDS011;55925;51.764;6.402;2023-08-06T13:48:43;7.28;;;3.50;;
68886;SDS011;55925;51.764;6.402;2023-08-06T13:51:10;9.73;;;3.63;;
68886;SDS011;55925;51.764;6.402;2023-08-06T13:53:36;7.63;;;3.15;;
68886;SDS011;55925;51.764;6.402;2023-08-06T13:56:02;8.75;;;3.33;;
68886;SDS011;55925;51.764;6.402;2023-08-06T13:58:28;8.18;;;2.70;;
68886;SDS011;55925;51.764;6.402;2023-08-06T14:00:54;6.60;;;2.63;;
68886;SDS011;55925;51.764;6.402;2023-08-06T14:03:22;6.82;;;2.50;;
68886;SDS011;55925;51.764;6.402;2023-08-06T14:05:48;6.07;;;2.90;;
68886;SDS011;55925;51.764;6.402;2023-08-06T14:08:14;5.43;;;2.65;;
68886;SDS011;55925;51.764;6.402;2023-08-06T14:10:43;8.68;;;3.70;;
68886;SDS011;55925;51.764;6.402;2023-08-06T14:13:09;7.00;;;2.65;;
68886;SDS011;55925;51.764;6.402;2023-08-06T14:15:35;6.35;;;2.67;;
68886;SDS011;55925;51.764;6.402;2023-08-06T14:18:01;7.82;;;3.10;;
68886;SDS011;55925;51.764;6.402;2023-08-06T14:20:28;6.10;;;3.08;;
68886;SDS011;55925;51.764;6.402;2023-08-06T14:22:54;5.95;;;3.20;;
68886;SDS011;55925;51.764;6.402;2023-08-06T14:25:20;12.35;;;5.47;;
68886;SDS011;55925;51.764;6.402;2023-08-06T14:27:46;4.80;;;2.50;;
68886;SDS011;55925;51.764;6.402;2023-08-06T14:30:12;8.70;;;2.92;;
68886;SDS011;55925;51.764;6.402;2023-08-06T14:32:38;4.78;;;2.40;;
68886;SDS011;55925;51.764;6.402;2023-08-06T14:35:04;6.07;;;2.10;;
68886;SDS011;55925;51.764;6.402;2023-08-06T14:37:30;5.15;;;2.00;;
68886;SDS011;55925;51.764;6.402;2023-08-06T14:39:57;4.57;;;1.98;;
68886;SDS011;55925;51.764;6.402;2023-08-06T14:42:23;6.53;;;1.90;;
68886;SDS011;55925;51.764;6.402;2023-08-06T14:44:49;5.38;;;1.92;;
68886;SDS011;55925;51.764;6.402;2023-08-06T14:47:15;5.93;;;2.20;;
68886;SDS011;55925;51.764;6.402;2023-08-06T14:49:41;5.38;;;2.08;;